createdAt,value
2023-04-16T00:02:15.889Z,8.38
2023-04-16T00:07:17.645Z,8.37
2023-04-16T00:12:19.296Z,8.30
2023-04-16T00:17:20.907Z,8.34
2023-04-16T00:22:22.544Z,8.42
2023-04-16T00:27:24.547Z,8.39
2023-04-16T00:32:26.373Z,8.34
2023-04-16T00:37:28.050Z,8.24
2023-04-16T00:42:30.199Z,8.18
2023-04-16T00:47:32.035Z,8.10
2023-04-16T00:52:34.495Z,8.14
2023-04-16T00:57:36.239Z,8.11
2023-04-16T01:02:38.480Z,8.07
2023-04-16T01:07:40.266Z,8.14
2023-04-16T01:12:41.936Z,8.16
2023-04-16T01:17:45.560Z,8.15
2023-04-16T01:22:47.289Z,7.99
2023-04-16T01:27:54.772Z,7.89
2023-04-16T01:32:57.798Z,7.93
2023-04-16T01:37:59.539Z,7.95
2023-04-16T01:43:01.223Z,7.94
2023-04-16T01:48:03.662Z,7.99
2023-04-16T01:53:05.386Z,8.09
2023-04-16T01:58:10.565Z,8.11
2023-04-16T02:03:12.776Z,8.05
2023-04-16T02:08:14.664Z,8.00
2023-04-16T02:13:16.716Z,7.96
2023-04-16T02:18:21.234Z,7.98
2023-04-16T02:23:23.344Z,7.99
2023-04-16T02:28:25.231Z,8.06
2023-04-16T02:33:26.915Z,8.01
2023-04-16T02:38:37.427Z,8.02
2023-04-16T02:43:39.355Z,8.04
2023-04-16T02:48:41.057Z,8.05
2023-04-16T02:53:45.926Z,8.12
2023-04-16T02:58:48.115Z,8.13
2023-04-16T03:03:49.988Z,8.13
2023-04-16T03:08:51.887Z,8.04
2023-04-16T03:13:53.865Z,8.10
2023-04-16T03:18:55.686Z,8.12
2023-04-16T03:23:57.560Z,8.11
2023-04-16T03:28:59.938Z,8.10
2023-04-16T03:34:03.627Z,8.12
2023-04-16T03:39:06.422Z,8.14
2023-04-16T03:44:08.244Z,8.19
2023-04-16T03:49:10.585Z,8.15
2023-04-16T03:54:13.410Z,8.13
2023-04-16T03:59:17.103Z,8.18
2023-04-16T04:04:19.450Z,8.08
2023-04-16T04:09:21.433Z,8.07
2023-04-16T04:14:23.158Z,8.10
2023-04-16T04:19:24.821Z,8.16
2023-04-16T04:24:27.071Z,8.18
2023-04-16T04:29:29.094Z,8.19
2023-04-16T04:34:30.948Z,8.22
2023-04-16T04:39:33.611Z,8.24
2023-04-16T04:44:36.374Z,8.27
2023-04-16T04:49:38.044Z,8.23
2023-04-16T04:54:41.685Z,8.18
2023-04-16T04:59:43.526Z,8.16
2023-04-16T05:04:49.491Z,8.16
2023-04-16T05:09:51.921Z,8.18
2023-04-16T05:14:53.734Z,8.20
2023-04-16T05:19:55.342Z,8.20
2023-04-16T05:24:56.900Z,8.20
2023-04-16T05:29:58.465Z,8.22
2023-04-16T05:35:00.038Z,8.26
2023-04-16T05:40:02.315Z,8.31
2023-04-16T05:45:04.859Z,8.35
2023-04-16T05:50:06.887Z,8.37
2023-04-16T05:55:08.912Z,8.47
2023-04-16T06:00:10.918Z,8.55
2023-04-16T06:05:15.861Z,8.52
2023-04-16T06:10:17.553Z,8.53
2023-04-16T06:15:19.249Z,8.57
2023-04-16T06:20:20.939Z,8.64
2023-04-16T06:25:22.612Z,8.69
2023-04-16T06:30:24.223Z,8.72
2023-04-16T06:35:25.938Z,8.76
2023-04-16T06:40:27.725Z,8.86
2023-04-16T06:45:29.592Z,8.90
2023-04-16T06:50:31.403Z,8.94
2023-04-16T06:55:32.983Z,9.09
2023-04-16T07:00:35.184Z,9.18
2023-04-16T07:05:36.829Z,9.24
2023-04-16T07:10:38.490Z,9.23
2023-04-16T07:15:40.157Z,9.31
2023-04-16T07:20:41.895Z,9.37
2023-04-16T07:25:44.534Z,9.53
2023-04-16T07:30:46.237Z,9.61
2023-04-16T07:35:47.937Z,9.59
2023-04-16T07:40:49.977Z,9.59
2023-04-16T07:45:51.736Z,9.73
2023-04-16T07:53:50.265Z,9.86
2023-04-16T07:58:51.863Z,10.01
2023-04-16T08:03:53.612Z,10.07
2023-04-16T08:08:55.971Z,10.10
2023-04-16T08:13:57.639Z,10.17
2023-04-16T08:19:01.053Z,10.32
2023-04-16T08:24:02.705Z,10.47
2023-04-16T08:29:04.584Z,10.60
2023-04-16T08:34:06.141Z,10.59
2023-04-16T08:39:08.426Z,10.73
2023-04-16T08:44:14.749Z,10.90
2023-04-16T08:49:20.700Z,11.09
2023-04-16T08:54:40.973Z,11.10
2023-04-16T08:59:46.070Z,11.20
2023-04-16T09:04:48.504Z,11.32
2023-04-16T09:09:53.153Z,11.50
2023-04-16T09:14:56.971Z,11.58
2023-04-16T09:19:58.557Z,11.65
2023-04-16T09:25:00.306Z,11.77
2023-04-16T09:30:01.921Z,11.81
2023-04-16T09:35:03.685Z,11.76
2023-04-16T09:40:13.890Z,11.83
2023-04-16T09:45:19.537Z,11.91
2023-04-16T09:50:21.591Z,11.98
2023-04-16T09:55:23.794Z,12.06
2023-04-16T10:00:25.512Z,12.01
2023-04-16T10:05:27.481Z,12.07
2023-04-16T10:10:29.637Z,12.07
2023-04-16T10:15:31.378Z,12.13
2023-04-16T10:20:33.030Z,12.08
2023-04-16T10:25:35.183Z,12.00
2023-04-16T10:30:37.534Z,11.96
2023-04-16T10:35:40.385Z,11.97
2023-04-16T10:40:44.711Z,11.93
2023-04-16T10:45:47.521Z,11.81
2023-04-16T10:50:57.262Z,11.80
2023-04-16T10:56:11.046Z,11.87
2023-04-16T11:01:13.697Z,11.88
2023-04-16T11:06:17.518Z,11.86
2023-04-16T11:11:19.958Z,11.79
2023-04-16T11:16:21.631Z,11.85
2023-04-16T11:21:23.408Z,11.84
2023-04-16T11:26:26.423Z,11.87
2023-04-16T11:31:28.264Z,11.89
2023-04-16T11:36:42.847Z,11.94
2023-04-16T11:41:44.746Z,12.06
2023-04-16T11:46:46.406Z,12.18
2023-04-16T11:51:48.153Z,12.23
2023-04-16T11:56:50.969Z,12.24
2023-04-16T12:01:55.484Z,12.24
2023-04-16T12:07:06.759Z,12.16
2023-04-16T12:12:27.496Z,12.03
2023-04-16T12:17:30.225Z,12.05
2023-04-16T12:22:37.068Z,12.23
2023-04-16T12:27:50.718Z,12.40
2023-04-16T12:33:14.154Z,12.40
2023-04-16T12:38:15.896Z,12.56
2023-04-16T12:43:17.936Z,12.63
2023-04-16T12:48:19.536Z,12.57
2023-04-16T12:53:21.153Z,12.50
2023-04-16T12:58:23.182Z,12.53
2023-04-16T13:03:24.919Z,12.57
2023-04-16T13:08:26.689Z,12.64
2023-04-16T13:13:29.151Z,12.66
2023-04-16T13:18:30.920Z,12.61
2023-04-16T13:23:32.500Z,12.74
2023-04-16T13:28:34.636Z,12.83
2023-04-16T13:33:36.313Z,12.86
2023-04-16T13:38:39.468Z,13.00
2023-04-16T13:43:41.347Z,12.96
2023-04-16T13:48:43.085Z,13.08
2023-04-16T13:53:45.233Z,13.37
2023-04-16T13:58:46.836Z,13.54
2023-04-16T14:03:48.996Z,13.73
2023-04-16T14:08:50.768Z,14.00
2023-04-16T14:13:52.775Z,13.82
2023-04-16T14:18:54.353Z,13.65
2023-04-16T14:23:56.157Z,13.47
2023-04-16T14:28:57.715Z,13.38
2023-04-16T14:33:59.639Z,13.38
2023-04-16T14:39:01.373Z,13.33
2023-04-16T14:44:04.247Z,13.32
2023-04-16T14:49:06.024Z,13.31
2023-04-16T14:54:07.595Z,13.31
2023-04-16T14:59:09.634Z,13.28
2023-04-16T15:04:11.795Z,13.37
2023-04-16T15:09:13.484Z,13.49
2023-04-16T15:14:15.065Z,13.55
2023-04-16T15:19:16.693Z,13.54
2023-04-16T15:24:18.338Z,13.49
2023-04-16T15:29:19.995Z,13.47
2023-04-16T15:34:21.690Z,13.42
2023-04-16T15:39:23.285Z,13.28
2023-04-16T15:44:26.067Z,13.41
2023-04-16T15:49:27.742Z,13.41
2023-04-16T15:54:29.625Z,13.31
2023-04-16T15:59:31.322Z,13.28
2023-04-16T16:04:32.969Z,13.23
2023-04-16T16:09:35.461Z,13.25
2023-04-16T16:14:37.712Z,13.26
2023-04-16T16:19:39.268Z,13.36
2023-04-16T16:24:40.872Z,13.39
2023-04-16T16:29:42.474Z,13.46
2023-04-16T16:34:44.098Z,13.42
2023-04-16T16:39:45.899Z,13.38
2023-04-16T16:44:48.745Z,13.29
2023-04-16T16:49:50.519Z,13.19
2023-04-16T16:54:56.733Z,13.05
2023-04-16T16:59:59.002Z,12.81
2023-04-16T17:05:01.126Z,12.51
2023-04-16T17:10:06.083Z,12.28
2023-04-16T17:15:08.740Z,12.07
2023-04-16T17:20:12.254Z,12.03
2023-04-16T17:25:14.188Z,12.02
2023-04-16T17:30:16.374Z,12.10
2023-04-16T17:35:17.937Z,12.17
2023-04-16T17:40:19.713Z,12.17
2023-04-16T17:45:21.378Z,12.12
2023-04-16T17:50:22.990Z,12.10
2023-04-16T17:55:24.997Z,12.05
2023-04-16T18:00:26.560Z,12.01
2023-04-16T18:05:28.350Z,11.68
2023-04-16T18:10:31.556Z,11.32
2023-04-16T18:15:39.232Z,11.25
2023-04-16T18:20:41.019Z,11.02
2023-04-16T18:25:42.732Z,10.84
2023-04-16T18:30:44.667Z,10.70
2023-04-16T18:35:46.313Z,10.50
2023-04-16T18:40:49.706Z,10.51
2023-04-16T18:45:51.675Z,10.52
2023-04-16T18:50:54.181Z,10.62
2023-04-16T18:55:56.143Z,10.67
2023-04-16T19:01:01.276Z,10.72
2023-04-16T19:06:02.926Z,10.51
2023-04-16T19:11:04.496Z,10.43
2023-04-16T19:16:11.865Z,10.37
2023-04-16T19:21:13.586Z,10.26
2023-04-16T19:26:17.735Z,10.16
2023-04-16T19:31:19.338Z,9.95
2023-04-16T19:36:21.175Z,9.87
2023-04-16T19:41:22.798Z,9.56
2023-04-16T19:46:24.485Z,9.35
2023-04-16T19:51:27.008Z,9.50
2023-04-16T19:56:28.631Z,9.59
2023-04-16T20:01:32.985Z,9.53
2023-04-16T20:06:34.722Z,9.58
2023-04-16T20:11:36.635Z,9.55
2023-04-16T20:16:38.709Z,9.33
2023-04-16T20:21:40.606Z,9.30
2023-04-16T20:26:42.267Z,9.25
2023-04-16T20:31:45.871Z,9.10
2023-04-16T20:36:47.587Z,9.01
2023-04-16T20:41:56.612Z,8.90
2023-04-16T20:46:59.455Z,8.84
2023-04-16T20:52:02.122Z,8.87
2023-04-16T20:57:04.883Z,8.66
2023-04-16T21:02:07.668Z,8.43
2023-04-16T21:07:09.497Z,8.22
2023-04-16T21:12:11.354Z,8.25
2023-04-16T21:17:12.912Z,8.35
2023-04-16T21:22:14.929Z,8.45
2023-04-16T21:27:16.624Z,8.50
2023-04-16T21:32:18.460Z,8.65
2023-04-16T21:37:20.145Z,8.78
2023-04-16T21:42:21.768Z,8.86
2023-04-16T21:47:23.486Z,8.79
2023-04-16T21:52:25.231Z,8.56
2023-04-16T21:57:27.545Z,8.43
2023-04-16T22:02:29.325Z,8.58
2023-04-16T22:07:31.006Z,8.55
2023-04-16T22:12:32.711Z,8.52
2023-04-16T22:17:34.710Z,8.45
2023-04-16T22:22:36.449Z,8.37
2023-04-16T22:27:38.116Z,8.29
2023-04-16T22:32:40.062Z,8.51
2023-04-16T22:37:41.981Z,8.68
2023-04-16T22:42:43.680Z,8.75
2023-04-16T22:47:45.790Z,8.70
2023-04-16T22:52:47.752Z,8.57
2023-04-16T22:57:49.359Z,8.55
2023-04-16T23:02:51.033Z,8.37
2023-04-16T23:07:52.679Z,8.24
2023-04-16T23:12:54.345Z,8.25
2023-04-16T23:17:56.075Z,8.41
2023-04-16T23:22:57.837Z,8.40
2023-04-16T23:27:59.494Z,8.45
2023-04-16T23:33:01.202Z,8.52
2023-04-16T23:38:03.335Z,8.49
2023-04-16T23:43:05.200Z,8.48
2023-04-16T23:48:06.886Z,8.38
2023-04-16T23:53:08.474Z,8.34
2023-04-16T23:58:10.288Z,8.33
